Time;durP1;ratioP1;P1;durP2;ratioP2;P2;SDS_P1;SDS_P2;PMS_P1;PMS_P2;Temp;Humidity;BMP_temperature;BMP_pressure;BME280_temperature;BME280_humidity;BME280_pressure;Samples;Min_cycle;Max_cycle;Signal;HPM_P1;HPM_P2
2022/08/13 00:00:43;;;;;;;3.30;2.80;;;26.10;54.50;;;;;;221639;1262;24247;-55
2022/08/13 00:05:47;;;;;;;4.40;3.20;;;26.10;54.50;;;;;;221602;1261;22551;-53
2022/08/13 00:10:50;;;;;;;3.60;2.80;;;26.10;54.60;;;;;;221440;1262;25410;-56
2022/08/13 00:15:54;;;;;;;3.50;3.00;;;26.00;54.70;;;;;;221543;1261;25333;-54
2022/08/13 00:20:58;;;;;;;3.50;2.90;;;26.10;53.90;;;;;;221781;1262;24394;-55
2022/08/13 00:26:05;;;;;;;4.00;3.10;;;26.10;54.40;;;;;;221396;1262;25201;-54
2022/08/13 00:31:10;;;;;;;3.40;3.10;;;26.10;54.40;;;;;;221567;1262;23697;-57
2022/08/13 00:36:12;;;;;;;3.50;3.10;;;26.00;54.40;;;;;;220978;1264;22564;-54
2022/08/13 00:41:48;;;;;;;3.30;2.80;;;26.00;54.50;;;;;;221209;1263;22858;-56
2022/08/13 00:52:30;;;;;;;4.20;3.50;;;26.10;54.80;;;;;;221357;1262;24224;-56
2022/08/13 00:57:32;;;;;;;4.50;3.10;;;26.00;54.40;;;;;;221541;1262;24370;-55
2022/08/13 01:02:35;;;;;;;4.20;3.20;;;26.00;54.70;;;;;;221538;1262;24775;-56
2022/08/13 01:07:42;;;;;;;3.90;3.10;;;26.00;54.60;;;;;;221045;1262;23912;-55
2022/08/13 01:12:55;;;;;;;3.60;3.30;;;26.00;55.00;;;;;;221353;1261;24289;-54
2022/08/13 01:17:58;;;;;;;3.90;3.00;;;26.00;54.60;;;;;;221356;1264;22553;-56
2022/08/13 01:23:03;;;;;;;4.70;3.30;;;26.00;54.60;;;;;;221254;1262;22652;-52
2022/08/13 01:28:06;;;;;;;4.00;3.20;;;26.00;55.00;;;;;;221296;1262;24203;-56
2022/08/13 01:33:14;;;;;;;3.90;2.90;;;26.00;55.00;;;;;;221230;1262;25349;-56
2022/08/13 01:38:16;;;;;;;4.60;3.30;;;26.00;54.90;;;;;;221381;1262;25438;-56
2022/08/13 01:43:30;;;;;;;4.70;3.30;;;26.00;54.70;;;;;;221337;1262;24257;-56
2022/08/13 01:54:04;;;;;;;3.70;3.10;;;26.00;54.80;;;;;;221445;1262;25232;-56
2022/08/13 01:59:27;;;;;;;3.50;3.10;;;26.00;54.60;;;;;;221118;1262;22602;-56
2022/08/13 02:04:49;;;;;;;4.20;3.40;;;26.00;54.80;;;;;;221201;1262;24383;-56
2022/08/13 02:10:03;;;;;;;3.80;3.20;;;25.90;55.30;;;;;;221404;1262;22574;-53
2022/08/13 02:15:09;;;;;;;4.20;3.20;;;26.00;54.70;;;;;;221555;1262;24236;-56
2022/08/13 02:20:17;;;;;;;3.70;3.20;;;25.90;54.70;;;;;;221236;1262;24292;-55
2022/08/13 02:25:23;;;;;;;3.40;3.10;;;25.90;54.80;;;;;;221279;1262;22554;-56
2022/08/13 02:30:29;;;;;;;4.70;4.00;;;25.90;54.70;;;;;;221453;1262;22589;-55
2022/08/13 02:35:35;;;;;;;4.20;3.30;;;25.90;54.70;;;;;;221222;1262;22523;-56
2022/08/13 02:46:17;;;;;;;4.20;3.20;;;25.90;55.00;;;;;;221278;1262;22534;-56
2022/08/13 02:51:23;;;;;;;4.40;3.30;;;25.90;54.70;;;;;;221584;1261;22814;-56
2022/08/13 02:56:45;;;;;;;4.10;3.50;;;25.90;54.80;;;;;;221467;1262;22544;-56
2022/08/13 03:01:51;;;;;;;4.50;3.60;;;25.90;55.00;;;;;;221615;1262;22673;-54
2022/08/13 03:06:58;;;;;;;4.50;3.30;;;25.90;55.00;;;;;;221574;1261;25244;-55
2022/08/13 03:12:04;;;;;;;4.10;3.60;;;25.90;54.90;;;;;;221503;1262;22543;-54
2022/08/13 03:17:11;;;;;;;4.10;3.50;;;25.90;54.90;;;;;;221388;1262;22556;-56
2022/08/13 03:22:25;;;;;;;4.20;3.30;;;25.90;54.90;;;;;;221320;1262;22553;-57
2022/08/13 03:27:29;;;;;;;3.50;3.10;;;25.90;55.10;;;;;;221524;1261;26226;-56
2022/08/13 03:32:42;;;;;;;3.80;3.40;;;25.90;55.30;;;;;;221378;1262;22538;-55
2022/08/13 03:37:53;;;;;;;3.90;3.40;;;25.90;55.20;;;;;;221543;1261;24061;-56
2022/08/13 03:43:09;;;;;;;4.00;3.40;;;25.90;55.40;;;;;;221592;1262;24250;-56
2022/08/13 03:48:18;;;;;;;4.80;3.80;;;25.80;55.00;;;;;;221423;1262;22553;-54
2022/08/13 03:53:21;;;;;;;4.50;3.80;;;25.90;55.30;;;;;;221579;1262;22557;-55
2022/08/13 03:58:46;;;;;;;4.60;3.80;;;25.90;55.30;;;;;;221751;1262;22554;-58
2022/08/13 04:03:51;;;;;;;3.90;3.50;;;25.80;55.30;;;;;;221539;1262;22612;-56
2022/08/13 04:08:53;;;;;;;3.80;3.40;;;25.80;55.10;;;;;;221319;1262;26508;-56
2022/08/13 04:13:56;;;;;;;4.80;3.70;;;25.80;55.40;;;;;;221387;1265;24313;-56
2022/08/13 04:19:18;;;;;;;4.30;3.60;;;25.80;55.30;;;;;;221329;1262;22546;-56
2022/08/13 04:24:22;;;;;;;5.90;4.10;;;25.80;55.50;;;;;;221135;1265;22557;-59
2022/08/13 04:29:29;;;;;;;4.90;3.90;;;25.80;55.30;;;;;;221117;1265;22551;-57
2022/08/13 04:34:52;;;;;;;4.60;3.80;;;25.80;55.30;;;;;;221407;1265;22639;-56
2022/08/13 04:40:01;;;;;;;4.30;3.90;;;25.80;55.60;;;;;;221212;1262;25321;-56
2022/08/13 04:45:12;;;;;;;3.90;3.50;;;25.80;55.40;;;;;;221152;1264;22540;-58
2022/08/13 04:50:14;;;;;;;5.30;4.00;;;25.80;55.30;;;;;;221136;1263;22535;-56
2022/08/13 04:55:20;;;;;;;5.80;4.00;;;25.80;55.50;;;;;;220460;1262;1188947;-55
2022/08/13 05:00:32;;;;;;;4.10;3.60;;;25.80;55.40;;;;;;221384;1261;24262;-56
2022/08/13 05:05:38;;;;;;;4.40;3.60;;;25.80;55.50;;;;;;221209;1262;24413;-57
2022/08/13 05:10:47;;;;;;;4.10;3.70;;;25.70;55.40;;;;;;221417;1261;22687;-57
2022/08/13 05:15:55;;;;;;;6.70;4.50;;;25.70;55.40;;;;;;221488;1262;24210;-54
2022/08/13 05:21:05;;;;;;;7.30;4.30;;;25.80;55.50;;;;;;221368;1261;24412;-57
2022/08/13 05:26:08;;;;;;;4.50;4.00;;;25.80;55.50;;;;;;221342;1262;24250;-55
2022/08/13 05:31:34;;;;;;;5.20;3.70;;;25.80;55.50;;;;;;221579;1262;22535;-55
2022/08/13 05:36:56;;;;;;;4.40;3.80;;;25.80;55.60;;;;;;221317;1261;23712;-56
2022/08/13 05:42:19;;;;;;;4.10;3.70;;;25.80;55.50;;;;;;221158;1262;24398;-56
2022/08/13 05:47:28;;;;;;;4.50;4.00;;;25.70;55.50;;;;;;221120;1265;25238;-57
2022/08/13 05:52:40;;;;;;;4.10;3.50;;;25.80;55.70;;;;;;221083;1262;23026;-57
2022/08/13 05:57:50;;;;;;;4.40;3.90;;;25.70;55.60;;;;;;221107;1265;24293;-60
2022/08/13 06:08:17;;;;;;;4.40;3.60;;;25.70;55.90;;;;;;221117;1265;22542;-58
2022/08/13 06:13:39;;;;;;;4.50;4.10;;;25.70;55.70;;;;;;221100;1262;22545;-58
2022/08/13 06:19:01;;;;;;;4.80;3.60;;;25.70;55.70;;;;;;221153;1262;23911;-56
2022/08/13 06:24:12;;;;;;;4.00;3.60;;;25.70;56.00;;;;;;221186;1265;24357;-55
2022/08/13 06:29:17;;;;;;;4.30;3.80;;;25.70;55.70;;;;;;220961;1265;22652;-56
2022/08/13 06:34:20;;;;;;;5.20;3.90;;;25.70;55.80;;;;;;221179;1262;22540;-55
2022/08/13 06:39:40;;;;;;;4.30;3.80;;;25.70;55.70;;;;;;221220;1265;25197;-56
2022/08/13 06:44:44;;;;;;;5.10;4.00;;;25.70;55.70;;;;;;221171;1262;22553;-55
2022/08/13 06:49:49;;;;;;;8.00;4.70;;;25.70;55.80;;;;;;221347;1262;24274;-57
2022/08/13 06:55:06;;;;;;;4.80;3.70;;;25.70;55.90;;;;;;221252;1262;25375;-54
2022/08/13 07:00:35;;;;;;;4.50;3.70;;;25.70;56.10;;;;;;221388;1262;22651;-56
2022/08/13 07:05:43;;;;;;;4.50;4.10;;;25.70;55.90;;;;;;221519;1262;22551;-56
2022/08/13 07:10:51;;;;;;;4.20;3.70;;;25.70;56.00;;;;;;221731;1262;25324;-57
2022/08/13 07:15:53;;;;;;;4.70;4.10;;;25.70;55.90;;;;;;221449;1262;25234;-54
2022/08/13 07:21:07;;;;;;;4.30;3.80;;;25.70;55.90;;;;;;221127;1262;22566;-59
2022/08/13 07:26:12;;;;;;;7.90;4.70;;;25.70;56.00;;;;;;221541;1261;24224;-58
2022/08/13 07:31:23;;;;;;;4.40;3.90;;;25.70;56.10;;;;;;221289;1262;24241;-56
2022/08/13 07:36:54;;;;;;;5.20;4.10;;;25.70;56.00;;;;;;221325;1265;22544;-56
2022/08/13 07:42:02;;;;;;;4.90;4.20;;;25.70;55.90;;;;;;221165;1262;24240;-56
2022/08/13 07:47:11;;;;;;;4.50;3.60;;;25.70;56.00;;;;;;221395;1262;22669;-55
2022/08/13 07:52:19;;;;;;;5.70;4.50;;;25.70;56.10;;;;;;221476;1262;24302;-58
2022/08/13 07:57:35;;;;;;;5.20;4.10;;;25.70;56.00;;;;;;221529;1261;22990;-60
2022/08/13 08:02:43;;;;;;;4.60;4.10;;;25.80;56.10;;;;;;221435;1262;24268;-57
2022/08/13 08:07:50;;;;;;;5.20;4.30;;;25.70;55.90;;;;;;221653;1262;26522;-57
2022/08/13 08:13:15;;;;;;;4.70;4.20;;;25.80;56.40;;;;;;221532;1262;22630;-56
2022/08/13 08:18:19;;;;;;;4.90;3.90;;;25.80;56.40;;;;;;221461;1262;24059;-53
2022/08/13 08:23:36;;;;;;;5.10;4.60;;;25.80;56.50;;;;;;221426;1262;22547;-54
2022/08/13 08:28:57;;;;;;;4.80;4.20;;;25.80;56.20;;;;;;221012;1262;25201;-55
2022/08/13 08:34:01;;;;;;;5.10;4.40;;;25.80;56.10;;;;;;221424;1262;25463;-56
2022/08/13 08:44:50;;;;;;;4.70;4.00;;;25.70;56.10;;;;;;221357;1262;22538;-54
2022/08/13 08:50:05;;;;;;;5.00;4.50;;;25.70;56.10;;;;;;221714;1262;24286;-53
2022/08/13 08:55:20;;;;;;;5.10;4.10;;;25.70;56.10;;;;;;221391;1262;24498;-53
2022/08/13 09:00:29;;;;;;;5.20;4.50;;;25.70;56.10;;;;;;221108;1262;24293;-53
2022/08/13 09:06:00;;;;;;;4.90;4.10;;;25.70;56.00;;;;;;221178;1262;24074;-52
2022/08/13 09:11:36;;;;;;;5.10;4.60;;;25.70;56.30;;;;;;221351;1262;22531;-54
2022/08/13 09:16:58;;;;;;;5.60;4.20;;;25.70;56.10;;;;;;221042;1262;24408;-52
2022/08/13 09:22:00;;;;;;;5.90;4.50;;;25.80;56.10;;;;;;221375;1262;25307;-56
2022/08/13 09:27:04;;;;;;;5.00;4.50;;;25.80;56.70;;;;;;221286;1262;26486;-50
2022/08/13 09:32:06;;;;;;;5.90;5.10;;;25.80;56.10;;;;;;221484;1262;25243;-51
2022/08/13 09:37:11;;;;;;;4.90;4.30;;;25.80;56.30;;;;;;221217;1262;26567;-53
2022/08/13 09:42:32;;;;;;;5.20;4.40;;;25.80;56.20;;;;;;221421;1262;24262;-54
2022/08/13 09:47:35;;;;;;;6.10;4.60;;;25.80;56.30;;;;;;221436;1262;22543;-52
2022/08/13 09:52:57;;;;;;;5.40;4.90;;;25.80;56.50;;;;;;221258;1262;22834;-53
2022/08/13 09:58:04;;;;;;;5.10;4.40;;;25.80;57.10;;;;;;221135;1262;22543;-50
2022/08/13 10:03:20;;;;;;;5.30;4.80;;;25.80;56.50;;;;;;221072;1262;23418;-54
2022/08/13 10:08:25;;;;;;;4.80;4.20;;;25.80;56.60;;;;;;221419;1262;22682;-51
2022/08/13 10:13:37;;;;;;;5.10;4.60;;;25.80;56.40;;;;;;221341;1262;22564;-55
2022/08/13 10:18:55;;;;;;;5.00;4.50;;;25.90;56.40;;;;;;221100;1262;24283;-53
2022/08/13 10:24:02;;;;;;;5.20;4.70;;;25.90;56.30;;;;;;221193;1262;22553;-54
2022/08/13 10:29:10;;;;;;;4.90;4.40;;;25.90;56.30;;;;;;221142;1262;24465;-52
2022/08/13 10:34:36;;;;;;;5.20;4.70;;;25.90;56.30;;;;;;220892;1265;25543;-55
2022/08/13 10:39:59;;;;;;;4.70;4.20;;;25.90;56.70;;;;;;220892;1265;22557;-53
2022/08/13 10:45:01;;;;;;;4.40;4.00;;;25.90;56.70;;;;;;221266;1265;23907;-54
2022/08/13 10:50:19;;;;;;;9.20;5.90;;;25.90;57.00;;;;;;221356;1265;24279;-52
2022/08/13 10:55:22;;;;;;;4.90;4.40;;;25.90;56.60;;;;;;221068;1262;22531;-54
2022/08/13 11:00:36;;;;;;;5.20;4.70;;;25.90;56.30;;;;;;221131;1262;22531;-55
2022/08/13 11:05:39;;;;;;;5.10;4.50;;;26.00;56.30;;;;;;221205;1262;25286;-53
2022/08/13 11:10:47;;;;;;;6.00;4.70;;;26.00;57.10;;;;;;221546;1262;22794;-55
2022/08/13 11:22:10;;;;;;;5.70;5.10;;;26.00;56.90;;;;;;221338;1262;22528;-52
2022/08/13 11:27:34;;;;;;;5.60;5.00;;;26.00;56.70;;;;;;221509;1262;25319;-55
2022/08/13 11:33:00;;;;;;;5.30;4.80;;;26.00;57.20;;;;;;221390;1262;24417;-53
2022/08/13 11:38:12;;;;;;;6.50;4.20;;;26.00;56.80;;;;;;221165;1263;22551;-53
2022/08/13 11:43:29;;;;;;;5.20;4.70;;;26.00;56.80;;;;;;221124;1262;25548;-52
2022/08/13 11:48:55;;;;;;;5.00;4.50;;;26.00;56.80;;;;;;221193;1262;22528;-53
2022/08/13 11:54:21;;;;;;;5.80;5.00;;;26.10;57.50;;;;;;220966;1265;25421;-55
2022/08/13 11:59:38;;;;;;;5.80;5.10;;;26.10;56.80;;;;;;221129;1263;25400;-51
2022/08/13 12:05:00;;;;;;;6.20;5.10;;;26.10;56.50;;;;;;221206;1265;24266;-54
2022/08/13 12:10:08;;;;;;;5.20;4.40;;;26.10;56.80;;;;;;221160;1265;24998;-51
2022/08/13 12:15:32;;;;;;;5.30;4.50;;;26.20;56.40;;;;;;221318;1265;24214;-53
2022/08/13 12:20:57;;;;;;;5.90;4.60;;;26.20;56.10;;;;;;221388;1265;22560;-55
2022/08/13 12:26:02;;;;;;;4.80;4.30;;;26.30;56.10;;;;;;221155;1265;24129;-51
2022/08/13 12:31:07;;;;;;;6.10;4.80;;;26.30;56.40;;;;;;221208;1265;22695;-56
2022/08/13 12:36:13;;;;;;;5.90;5.30;;;26.30;56.50;;;;;;220951;1265;22649;-59
2022/08/13 12:41:19;;;;;;;5.20;4.70;;;26.20;56.70;;;;;;220926;1262;22543;-55
2022/08/13 12:46:39;;;;;;;4.80;4.30;;;26.20;56.80;;;;;;220957;1262;23137;-56
2022/08/13 12:51:48;;;;;;;5.40;4.90;;;26.20;56.60;;;;;;220985;1262;22528;-55
2022/08/13 12:56:57;;;;;;;5.10;4.60;;;26.30;56.50;;;;;;221148;1262;24287;-55
2022/08/13 13:02:00;;;;;;;5.70;5.10;;;26.30;56.20;;;;;;221049;1262;24183;-54
2022/08/13 13:07:04;;;;;;;5.40;4.90;;;26.30;56.10;;;;;;221167;1262;25357;-54
2022/08/13 13:12:10;;;;;;;5.60;5.00;;;26.30;56.50;;;;;;221505;1262;22552;-55
2022/08/13 13:17:14;;;;;;;5.80;5.20;;;26.30;56.50;;;;;;221010;1262;22546;-57
2022/08/13 13:22:38;;;;;;;5.90;5.30;;;26.30;56.50;;;;;;220928;1265;25467;-53
2022/08/13 13:27:40;;;;;;;6.10;5.20;;;26.30;56.50;;;;;;221390;1265;22541;-57
2022/08/13 13:32:53;;;;;;;5.60;5.10;;;26.30;56.50;;;;;;221369;1262;23931;-54
2022/08/13 13:38:04;;;;;;;5.60;5.10;;;26.30;56.70;;;;;;221239;1262;22565;-55
2022/08/13 13:43:15;;;;;;;6.40;5.80;;;26.30;56.40;;;;;;221089;1262;25235;-56
2022/08/13 13:48:28;;;;;;;6.00;5.40;;;26.30;56.30;;;;;;221231;1265;22541;-55
2022/08/13 13:53:33;;;;;;;5.80;5.20;;;26.30;56.40;;;;;;221347;1265;25238;-54
2022/08/13 13:58:57;;;;;;;5.70;4.90;;;26.30;56.40;;;;;;221152;1265;24289;-54
2022/08/13 14:04:02;;;;;;;5.70;5.20;;;26.30;56.30;;;;;;220871;1265;23901;-54
2022/08/13 14:09:07;;;;;;;6.90;5.70;;;26.30;56.60;;;;;;221112;1262;24418;-54
2022/08/13 14:14:12;;;;;;;5.60;5.10;;;26.30;56.20;;;;;;221217;1262;22576;-57
2022/08/13 14:19:22;;;;;;;5.90;5.30;;;26.40;56.30;;;;;;221472;1262;24205;-58
2022/08/13 14:24:47;;;;;;;6.00;5.40;;;26.40;56.30;;;;;;221358;1262;24222;-55
2022/08/13 14:29:53;;;;;;;6.00;5.40;;;26.40;56.40;;;;;;221384;1262;25411;-56
2022/08/13 14:35:02;;;;;;;5.90;5.30;;;26.40;57.00;;;;;;221775;1262;22563;-56
2022/08/13 14:40:14;;;;;;;6.00;5.40;;;26.40;56.30;;;;;;221407;1263;22556;-53
2022/08/13 14:45:42;;;;;;;6.30;5.70;;;26.40;56.40;;;;;;221217;1262;22531;-55
2022/08/13 14:51:06;;;;;;;6.10;5.50;;;26.30;56.50;;;;;;221343;1265;22570;-59
2022/08/13 14:56:27;;;;;;;6.10;5.50;;;26.30;56.50;;;;;;221617;1265;24405;-54
2022/08/13 15:01:35;;;;;;;5.90;5.40;;;26.30;56.50;;;;;;221626;1262;24240;-52
2022/08/13 15:06:44;;;;;;;7.60;6.80;;;26.30;56.90;;;;;;221334;1262;22553;-55
2022/08/13 15:11:47;;;;;;;6.20;5.60;;;26.30;56.60;;;;;;221726;1263;22556;-55
2022/08/13 15:17:02;;;;;;;;;;;26.30;56.60;;;;;;221612;1262;25280;-56
2022/08/13 15:22:06;;;;;;;6.50;5.90;;;26.30;56.90;;;;;;221632;1265;22555;-56
2022/08/13 15:27:29;;;;;;;6.70;5.90;;;26.20;57.10;;;;;;221292;1262;22553;-53
2022/08/13 15:32:37;;;;;;;7.80;6.40;;;26.30;57.20;;;;;;221519;1265;22531;-54
2022/08/13 15:37:44;;;;;;;6.40;5.80;;;26.30;57.30;;;;;;221410;1265;22687;-56
2022/08/13 15:43:08;;;;;;;7.00;6.30;;;26.30;57.30;;;;;;221138;1265;23988;-56
2022/08/13 15:48:15;;;;;;;6.60;5.90;;;26.30;57.60;;;;;;221488;1265;24103;-54
2022/08/13 15:53:26;;;;;;;6.60;5.90;;;26.30;57.10;;;;;;221038;1265;25413;-53
2022/08/13 15:58:31;;;;;;;6.90;6.00;;;26.30;57.80;;;;;;221196;1265;26251;-54
2022/08/13 16:03:38;;;;;;;6.30;5.70;;;26.30;57.90;;;;;;221530;1262;25362;-54
2022/08/13 16:08:45;;;;;;;6.10;5.50;;;26.30;57.70;;;;;;221366;1265;22548;-53
2022/08/13 16:13:55;;;;;;;8.60;6.10;;;26.30;57.60;;;;;;221397;1265;22543;-56
2022/08/13 16:18:58;;;;;;;6.30;5.70;;;26.30;57.40;;;;;;221572;1265;25232;-55
2022/08/13 16:24:07;;;;;;;7.00;6.30;;;26.30;57.30;;;;;;221492;1265;26487;-57
2022/08/13 16:29:13;;;;;;;7.80;5.90;;;26.30;57.40;;;;;;221793;1262;24390;-57
2022/08/13 16:34:19;;;;;;;6.10;5.50;;;26.30;57.30;;;;;;221503;1265;25394;-53
2022/08/13 16:39:24;;;;;;;7.10;5.80;;;26.30;57.60;;;;;;221456;1264;22776;-56
2022/08/13 16:44:28;;;;;;;6.40;5.30;;;26.30;57.40;;;;;;221405;1265;24293;-55
2022/08/13 16:49:41;;;;;;;6.80;6.00;;;26.30;57.30;;;;;;221352;1265;22564;-57
2022/08/13 16:54:43;;;;;;;6.90;5.90;;;26.30;57.30;;;;;;220438;1262;1302008;-55
2022/08/13 16:59:47;;;;;;;6.50;5.90;;;26.30;57.60;;;;;;221512;1262;22636;-54
2022/08/13 17:10:22;;;;;;;8.00;5.90;;;26.30;57.40;;;;;;221414;1265;22544;-57
2022/08/13 17:15:26;;;;;;;6.30;5.70;;;26.30;57.40;;;;;;221431;1262;24472;-54
2022/08/13 17:20:30;;;;;;;5.90;5.30;;;26.30;57.40;;;;;;221204;1265;24263;-51
2022/08/13 17:25:38;;;;;;;6.00;5.50;;;26.20;57.70;;;;;;221304;1265;24348;-55
2022/08/13 17:30:42;;;;;;;6.40;5.80;;;26.30;57.40;;;;;;221349;1265;22534;-58
2022/08/13 17:35:48;;;;;;;6.30;5.70;;;26.20;57.40;;;;;;221297;1264;22541;-56
2022/08/13 17:40:51;;;;;;;6.50;5.90;;;26.20;57.30;;;;;;221515;1261;23980;-54
2022/08/13 17:45:56;;;;;;;5.90;5.30;;;26.20;57.70;;;;;;221274;1265;24386;-55
2022/08/13 17:51:03;;;;;;;6.30;5.70;;;26.20;58.00;;;;;;221259;1265;25248;-56
2022/08/13 17:56:16;;;;;;;6.30;5.70;;;26.20;57.30;;;;;;221369;1265;22802;-56
2022/08/13 18:01:20;;;;;;;6.70;5.70;;;26.20;57.30;;;;;;221512;1265;25373;-55
2022/08/13 18:06:31;;;;;;;6.20;5.60;;;26.20;57.30;;;;;;221432;1261;22550;-54
2022/08/13 18:11:36;;;;;;;7.80;6.40;;;26.20;57.30;;;;;;221439;1265;24380;-53
2022/08/13 18:16:44;;;;;;;6.20;5.50;;;26.20;57.30;;;;;;221556;1265;25299;-54
2022/08/13 18:22:07;;;;;;;6.40;5.70;;;26.20;57.30;;;;;;221265;1265;25250;-56
2022/08/13 18:27:09;;;;;;;5.30;4.80;;;26.20;57.30;;;;;;221256;1265;27804;-54
2022/08/13 18:32:20;;;;;;;6.70;5.90;;;26.20;57.30;;;;;;221076;1265;24295;-54
2022/08/13 18:37:29;;;;;;;6.60;5.60;;;26.20;57.20;;;;;;221201;1265;22527;-54
2022/08/13 18:42:51;;;;;;;7.80;6.30;;;26.10;57.40;;;;;;221487;1262;26644;-54
2022/08/13 18:47:54;;;;;;;7.00;6.10;;;26.20;57.30;;;;;;221421;1262;22692;-54
2022/08/13 18:52:57;;;;;;;6.80;5.80;;;26.20;57.30;;;;;;221590;1265;23626;-57
2022/08/13 18:58:20;;;;;;;6.90;6.20;;;26.20;57.40;;;;;;221145;1265;24316;-54
2022/08/13 19:03:24;;;;;;;6.40;5.80;;;26.10;57.30;;;;;;221163;1265;24202;-56
2022/08/13 19:08:41;;;;;;;6.40;5.80;;;26.10;57.30;;;;;;221051;1265;25405;-59
2022/08/13 19:13:45;;;;;;;6.30;5.70;;;26.10;57.30;;;;;;221118;1265;22631;-54
2022/08/13 19:18:48;;;;;;;6.10;5.50;;;26.10;57.70;;;;;;221309;1262;24305;-55
2022/08/13 19:23:54;;;;;;;6.90;5.90;;;26.10;57.40;;;;;;221315;1263;22668;-55
2022/08/13 19:29:04;;;;;;;5.90;5.10;;;26.10;57.40;;;;;;221357;1262;23905;-52
2022/08/13 19:34:11;;;;;;;6.70;6.00;;;26.10;57.70;;;;;;221584;1262;22682;-57
2022/08/13 19:39:32;;;;;;;6.30;5.20;;;26.10;57.60;;;;;;221575;1264;24110;-55
2022/08/13 19:44:55;;;;;;;6.20;5.60;;;26.10;57.50;;;;;;221659;1262;25266;-55
2022/08/13 19:49:58;;;;;;;6.40;5.40;;;26.10;57.50;;;;;;221299;1262;22704;-54
2022/08/13 19:55:00;;;;;;;6.20;5.60;;;26.10;57.60;;;;;;221252;1265;22544;-57
2022/08/13 20:00:11;;;;;;;7.60;6.00;;;26.10;57.50;;;;;;221633;1262;22540;-54
2022/08/13 20:05:27;;;;;;;6.00;5.40;;;26.10;57.50;;;;;;221370;1265;22551;-55
2022/08/13 20:10:50;;;;;;;5.80;5.20;;;26.00;57.50;;;;;;221102;1265;25292;-56
2022/08/13 20:15:52;;;;;;;6.20;5.60;;;26.10;57.60;;;;;;221215;1262;22655;-54
2022/08/13 20:20:59;;;;;;;6.20;5.60;;;26.10;57.60;;;;;;221510;1265;23930;-55
2022/08/13 20:26:10;;;;;;;5.70;5.20;;;26.10;57.80;;;;;;221160;1265;24167;-56
2022/08/13 20:31:19;;;;;;;6.40;5.70;;;26.00;57.40;;;;;;221178;1265;25348;-57
2022/08/13 20:36:23;;;;;;;6.10;5.30;;;26.00;57.70;;;;;;221363;1265;22525;-57
2022/08/13 20:41:30;;;;;;;6.90;5.80;;;26.00;57.40;;;;;;221286;1265;24358;-54
2022/08/13 20:46:50;;;;;;;6.50;5.60;;;26.00;57.40;;;;;;221420;1262;24240;-54
2022/08/13 20:51:55;;;;;;;5.70;5.20;;;26.00;57.40;;;;;;221528;1262;22564;-56
2022/08/13 20:56:58;;;;;;;5.40;4.80;;;26.00;57.40;;;;;;221494;1262;22554;-57
2022/08/13 21:02:01;;;;;;;5.70;5.10;;;26.00;57.40;;;;;;221353;1262;22540;-55
2022/08/13 21:07:05;;;;;;;7.00;5.30;;;26.00;57.40;;;;;;221502;1262;22539;-55
2022/08/13 21:12:10;;;;;;;5.70;5.10;;;26.00;57.30;;;;;;221523;1262;24488;-56
2022/08/13 21:17:12;;;;;;;5.90;5.10;;;26.00;57.30;;;;;;221310;1262;24310;-55
2022/08/13 21:22:16;;;;;;;6.00;5.10;;;26.00;57.30;;;;;;221340;1262;24462;-55
2022/08/13 21:27:28;;;;;;;6.10;5.50;;;26.00;57.30;;;;;;221269;1262;25415;-54
2022/08/13 21:32:57;;;;;;;6.30;5.70;;;26.00;57.40;;;;;;221243;1262;22564;-53
2022/08/13 21:38:06;;;;;;;5.50;4.90;;;26.00;57.30;;;;;;221617;1262;25383;-54
2022/08/13 21:43:13;;;;;;;5.50;5.00;;;26.00;57.60;;;;;;221592;1261;25271;-56
2022/08/13 21:48:18;;;;;;;6.60;5.90;;;26.00;57.30;;;;;;221462;1262;22803;-54
2022/08/13 21:53:22;;;;;;;5.70;5.10;;;26.00;57.30;;;;;;221561;1265;22609;-57
2022/08/13 21:58:45;;;;;;;6.10;5.40;;;26.00;57.40;;;;;;221341;1263;23094;-54
2022/08/13 22:03:53;;;;;;;5.70;5.10;;;26.00;57.30;;;;;;221078;1262;22530;-54
2022/08/13 22:09:18;;;;;;;6.00;5.20;;;26.00;57.30;;;;;;221427;1262;24848;-57
2022/08/13 22:14:24;;;;;;;5.60;5.00;;;26.00;57.30;;;;;;221411;1262;22567;-55
2022/08/13 22:19:31;;;;;;;5.80;5.10;;;26.00;57.40;;;;;;221147;1265;22617;-55
2022/08/13 22:24:35;;;;;;;5.70;5.20;;;26.00;57.50;;;;;;221175;1265;23178;-55
2022/08/13 22:35:03;;;;;;;6.10;5.30;;;26.00;57.40;;;;;;221500;1262;22681;-59
2022/08/13 22:40:17;;;;;;;5.60;5.10;;;25.90;57.30;;;;;;221259;1262;22706;-56
2022/08/13 22:45:19;;;;;;;5.90;5.20;;;26.00;57.40;;;;;;221479;1262;25349;-56
2022/08/13 22:50:24;;;;;;;5.40;4.80;;;26.00;57.30;;;;;;221350;1262;25351;-56
2022/08/13 22:55:31;;;;;;;5.50;5.00;;;25.90;57.30;;;;;;221126;1262;24207;-53
2022/08/13 23:00:48;;;;;;;6.20;5.60;;;25.90;57.50;;;;;;221153;1262;24282;-54
2022/08/13 23:05:55;;;;;;;6.60;5.70;;;25.90;57.50;;;;;;221419;1262;22551;-52
2022/08/13 23:11:03;;;;;;;7.10;6.10;;;25.90;57.60;;;;;;221632;1262;22570;-55
2022/08/13 23:16:06;;;;;;;6.40;5.10;;;25.90;57.70;;;;;;221180;1262;24281;-55
2022/08/13 23:21:25;;;;;;;5.60;5.00;;;25.90;57.80;;;;;;221339;1265;25228;-56
2022/08/13 23:26:34;;;;;;;6.10;5.40;;;25.90;57.60;;;;;;221360;1262;24295;-56
2022/08/13 23:31:37;;;;;;;5.70;5.10;;;25.90;57.60;;;;;;221399;1261;22608;-53
2022/08/13 23:36:46;;;;;;;6.30;5.70;;;25.90;57.50;;;;;;221638;1262;22691;-53
2022/08/13 23:42:02;;;;;;;6.00;5.00;;;25.90;57.70;;;;;;221436;1262;23034;-55
2022/08/13 23:47:06;;;;;;;5.80;5.10;;;25.90;57.50;;;;;;221254;1265;22608;-55
2022/08/13 23:52:16;;;;;;;7.30;5.80;;;25.90;57.50;;;;;;221056;1265;25361;-55
2022/08/13 23:57:31;;;;;;;5.80;5.10;;;25.80;57.50;;;;;;221179;1262;25323;-54
